sensor_id;sensor_type;location;lat;lon;timestamp;P1;durP1;ratioP1;P2;durP2;ratioP2
7334;SDS011;3708;42.632;23.378;2024-03-08T00:01:09;10.48;;;6.10;;
7334;SDS011;3708;42.632;23.378;2024-03-08T00:03:35;13.82;;;6.25;;
7334;SDS011;3708;42.632;23.378;2024-03-08T00:06:01;11.60;;;6.28;;
7334;SDS011;3708;42.632;23.378;2024-03-08T00:08:27;15.65;;;7.40;;
7334;SDS011;3708;42.632;23.378;2024-03-08T00:10:53;17.23;;;8.52;;
7334;SDS011;3708;42.632;23.378;2024-03-08T00:13:19;12.02;;;7.32;;
7334;SDS011;3708;42.632;23.378;2024-03-08T00:15:44;9.68;;;6.10;;
7334;SDS011;3708;42.632;23.378;2024-03-08T00:18:10;13.43;;;6.20;;
7334;SDS011;3708;42.632;23.378;2024-03-08T00:20:36;15.75;;;7.03;;
7334;SDS011;3708;42.632;23.378;2024-03-08T00:23:02;12.85;;;6.32;;
7334;SDS011;3708;42.632;23.378;2024-03-08T00:25:27;16.85;;;8.70;;
7334;SDS011;3708;42.632;23.378;2024-03-08T00:27:53;12.93;;;6.35;;
7334;SDS011;3708;42.632;23.378;2024-03-08T00:30:21;13.88;;;6.88;;
7334;SDS011;3708;42.632;23.378;2024-03-08T00:32:48;13.38;;;6.22;;
7334;SDS011;3708;42.632;23.378;2024-03-08T00:35:14;13.25;;;7.68;;
7334;SDS011;3708;42.632;23.378;2024-03-08T00:37:40;14.50;;;6.70;;
7334;SDS011;3708;42.632;23.378;2024-03-08T00:42:34;14.30;;;5.78;;
7334;SDS011;3708;42.632;23.378;2024-03-08T00:45:00;13.48;;;6.75;;
7334;SDS011;3708;42.632;23.378;2024-03-08T00:47:26;18.17;;;7.75;;
7334;SDS011;3708;42.632;23.378;2024-03-08T00:49:52;16.30;;;6.95;;
7334;SDS011;3708;42.632;23.378;2024-03-08T00:52:18;14.70;;;6.78;;
7334;SDS011;3708;42.632;23.378;2024-03-08T00:54:44;15.77;;;7.80;;
7334;SDS011;3708;42.632;23.378;2024-03-08T00:57:10;16.05;;;7.28;;
7334;SDS011;3708;42.632;23.378;2024-03-08T00:59:37;15.02;;;7.18;;
7334;SDS011;3708;42.632;23.378;2024-03-08T01:02:03;18.92;;;8.32;;
7334;SDS011;3708;42.632;23.378;2024-03-08T01:04:29;17.05;;;8.27;;
7334;SDS011;3708;42.632;23.378;2024-03-08T01:06:55;14.85;;;6.97;;
7334;SDS011;3708;42.632;23.378;2024-03-08T01:11:47;10.93;;;6.07;;
7334;SDS011;3708;42.632;23.378;2024-03-08T01:14:12;10.63;;;5.85;;
7334;SDS011;3708;42.632;23.378;2024-03-08T01:16:38;12.45;;;6.43;;
7334;SDS011;3708;42.632;23.378;2024-03-08T01:19:04;11.07;;;5.70;;
7334;SDS011;3708;42.632;23.378;2024-03-08T01:21:29;10.95;;;5.65;;
7334;SDS011;3708;42.632;23.378;2024-03-08T01:23:55;7.20;;;5.13;;
7334;SDS011;3708;42.632;23.378;2024-03-08T01:26:20;14.35;;;6.05;;
7334;SDS011;3708;42.632;23.378;2024-03-08T01:28:46;12.40;;;6.13;;
7334;SDS011;3708;42.632;23.378;2024-03-08T01:31:11;7.43;;;4.13;;
7334;SDS011;3708;42.632;23.378;2024-03-08T01:33:38;7.15;;;4.28;;
7334;SDS011;3708;42.632;23.378;2024-03-08T01:36:05;6.88;;;4.07;;
7334;SDS011;3708;42.632;23.378;2024-03-08T01:38:31;6.15;;;3.85;;
7334;SDS011;3708;42.632;23.378;2024-03-08T01:40:56;7.70;;;3.38;;
7334;SDS011;3708;42.632;23.378;2024-03-08T01:43:25;3.72;;;3.38;;
7334;SDS011;3708;42.632;23.378;2024-03-08T01:45:55;4.22;;;2.83;;
7334;SDS011;3708;42.632;23.378;2024-03-08T01:48:23;5.25;;;3.22;;
7334;SDS011;3708;42.632;23.378;2024-03-08T01:50:50;3.55;;;2.92;;
7334;SDS011;3708;42.632;23.378;2024-03-08T01:53:18;3.15;;;2.72;;
7334;SDS011;3708;42.632;23.378;2024-03-08T01:55:44;4.40;;;3.08;;
7334;SDS011;3708;42.632;23.378;2024-03-08T01:58:12;4.50;;;3.15;;
7334;SDS011;3708;42.632;23.378;2024-03-08T02:00:41;4.95;;;2.97;;
7334;SDS011;3708;42.632;23.378;2024-03-08T02:03:08;2.95;;;2.67;;
7334;SDS011;3708;42.632;23.378;2024-03-08T02:05:36;4.55;;;2.92;;
7334;SDS011;3708;42.632;23.378;2024-03-08T02:08:03;2.88;;;2.30;;
7334;SDS011;3708;42.632;23.378;2024-03-08T02:10:32;2.95;;;2.70;;
7334;SDS011;3708;42.632;23.378;2024-03-08T02:12:59;3.40;;;2.40;;
7334;SDS011;3708;42.632;23.378;2024-03-08T02:15:43;2.28;;;2.08;;
7334;SDS011;3708;42.632;23.378;2024-03-08T02:18:19;2.72;;;2.08;;
7334;SDS011;3708;42.632;23.378;2024-03-08T02:20:51;1.95;;;1.33;;
7334;SDS011;3708;42.632;23.378;2024-03-08T02:25:44;1.60;;;1.50;;
7334;SDS011;3708;42.632;23.378;2024-03-08T02:28:11;1.77;;;1.67;;
7334;SDS011;3708;42.632;23.378;2024-03-08T02:30:37;1.63;;;1.52;;
7334;SDS011;3708;42.632;23.378;2024-03-08T02:33:04;2.13;;;1.50;;
7334;SDS011;3708;42.632;23.378;2024-03-08T02:35:34;1.63;;;1.52;;
7334;SDS011;3708;42.632;23.378;2024-03-08T02:38:00;1.98;;;1.50;;
7334;SDS011;3708;42.632;23.378;2024-03-08T02:40:26;2.10;;;2.00;;
7334;SDS011;3708;42.632;23.378;2024-03-08T02:42:52;1.35;;;1.30;;
7334;SDS011;3708;42.632;23.378;2024-03-08T02:45:18;1.70;;;1.60;;
7334;SDS011;3708;42.632;23.378;2024-03-08T02:47:43;1.38;;;1.27;;
7334;SDS011;3708;42.632;23.378;2024-03-08T02:50:09;1.90;;;1.75;;
7334;SDS011;3708;42.632;23.378;2024-03-08T02:52:34;2.25;;;2.13;;
7334;SDS011;3708;42.632;23.378;2024-03-08T02:55:01;1.70;;;1.60;;
7334;SDS011;3708;42.632;23.378;2024-03-08T02:57:31;1.58;;;1.48;;
7334;SDS011;3708;42.632;23.378;2024-03-08T02:59:57;2.13;;;1.65;;
7334;SDS011;3708;42.632;23.378;2024-03-08T03:02:24;1.63;;;1.42;;
7334;SDS011;3708;42.632;23.378;2024-03-08T03:04:51;1.58;;;1.48;;
7334;SDS011;3708;42.632;23.378;2024-03-08T03:07:17;2.08;;;1.88;;
7334;SDS011;3708;42.632;23.378;2024-03-08T03:09:43;2.28;;;1.20;;
7334;SDS011;3708;42.632;23.378;2024-03-08T03:12:09;1.60;;;1.50;;
7334;SDS011;3708;42.632;23.378;2024-03-08T03:14:37;2.45;;;1.75;;
7334;SDS011;3708;42.632;23.378;2024-03-08T03:17:03;3.90;;;2.08;;
7334;SDS011;3708;42.632;23.378;2024-03-08T03:19:30;1.65;;;1.55;;
7334;SDS011;3708;42.632;23.378;2024-03-08T03:21:55;1.27;;;1.23;;
7334;SDS011;3708;42.632;23.378;2024-03-08T03:24:22;4.13;;;1.90;;
7334;SDS011;3708;42.632;23.378;2024-03-08T03:26:48;2.60;;;1.70;;
7334;SDS011;3708;42.632;23.378;2024-03-08T03:29:14;1.80;;;1.70;;
7334;SDS011;3708;42.632;23.378;2024-03-08T03:31:41;2.22;;;2.10;;
7334;SDS011;3708;42.632;23.378;2024-03-08T03:34:07;2.17;;;2.00;;
7334;SDS011;3708;42.632;23.378;2024-03-08T03:36:34;3.35;;;2.70;;
7334;SDS011;3708;42.632;23.378;2024-03-08T03:39:00;2.58;;;2.10;;
7334;SDS011;3708;42.632;23.378;2024-03-08T03:41:41;1.90;;;1.80;;
7334;SDS011;3708;42.632;23.378;2024-03-08T03:44:07;1.63;;;1.52;;
7334;SDS011;3708;42.632;23.378;2024-03-08T03:46:33;1.63;;;1.52;;
7334;SDS011;3708;42.632;23.378;2024-03-08T03:48:59;2.47;;;1.42;;
7334;SDS011;3708;42.632;23.378;2024-03-08T03:51:25;1.35;;;1.25;;
7334;SDS011;3708;42.632;23.378;2024-03-08T03:53:51;1.55;;;1.45;;
7334;SDS011;3708;42.632;23.378;2024-03-08T03:58:43;0.50;;;0.50;;
7334;SDS011;3708;42.632;23.378;2024-03-08T04:01:08;0.60;;;0.60;;
7334;SDS011;3708;42.632;23.378;2024-03-08T04:03:35;0.55;;;0.55;;
7334;SDS011;3708;42.632;23.378;2024-03-08T04:06:01;0.60;;;0.60;;
7334;SDS011;3708;42.632;23.378;2024-03-08T04:08:27;0.80;;;0.80;;
7334;SDS011;3708;42.632;23.378;2024-03-08T04:10:52;0.60;;;0.40;;
7334;SDS011;3708;42.632;23.378;2024-03-08T04:13:18;0.28;;;0.28;;
7334;SDS011;3708;42.632;23.378;2024-03-08T04:15:45;0.43;;;0.43;;
7334;SDS011;3708;42.632;23.378;2024-03-08T04:18:13;0.75;;;0.47;;
7334;SDS011;3708;42.632;23.378;2024-03-08T04:20:39;1.05;;;0.60;;
7334;SDS011;3708;42.632;23.378;2024-03-08T04:23:05;0.47;;;0.47;;
7334;SDS011;3708;42.632;23.378;2024-03-08T04:25:31;0.77;;;0.75;;
7334;SDS011;3708;42.632;23.378;2024-03-08T04:27:57;0.80;;;0.80;;
7334;SDS011;3708;42.632;23.378;2024-03-08T04:30:22;0.88;;;0.88;;
7334;SDS011;3708;42.632;23.378;2024-03-08T04:32:49;0.68;;;0.68;;
7334;SDS011;3708;42.632;23.378;2024-03-08T04:35:15;0.60;;;0.60;;
7334;SDS011;3708;42.632;23.378;2024-03-08T04:37:41;0.82;;;0.82;;
7334;SDS011;3708;42.632;23.378;2024-03-08T04:40:06;0.60;;;0.55;;
7334;SDS011;3708;42.632;23.378;2024-03-08T04:42:32;0.98;;;0.95;;
7334;SDS011;3708;42.632;23.378;2024-03-08T04:44:59;0.60;;;0.60;;
7334;SDS011;3708;42.632;23.378;2024-03-08T04:47:25;0.90;;;0.90;;
7334;SDS011;3708;42.632;23.378;2024-03-08T04:49:51;1.50;;;1.20;;
7334;SDS011;3708;42.632;23.378;2024-03-08T04:52:16;0.75;;;0.75;;
7334;SDS011;3708;42.632;23.378;2024-03-08T04:54:43;0.93;;;0.93;;
7334;SDS011;3708;42.632;23.378;2024-03-08T04:57:09;1.65;;;1.30;;
7334;SDS011;3708;42.632;23.378;2024-03-08T04:59:36;1.00;;;1.00;;
7334;SDS011;3708;42.632;23.378;2024-03-08T05:02:01;1.80;;;1.05;;
7334;SDS011;3708;42.632;23.378;2024-03-08T05:04:27;0.90;;;0.90;;
7334;SDS011;3708;42.632;23.378;2024-03-08T05:06:54;1.00;;;1.00;;
7334;SDS011;3708;42.632;23.378;2024-03-08T05:09:20;1.13;;;1.08;;
7334;SDS011;3708;42.632;23.378;2024-03-08T05:11:46;2.33;;;1.50;;
7334;SDS011;3708;42.632;23.378;2024-03-08T05:14:12;2.10;;;1.52;;
7334;SDS011;3708;42.632;23.378;2024-03-08T05:16:44;1.40;;;1.30;;
7334;SDS011;3708;42.632;23.378;2024-03-08T05:19:14;2.42;;;1.52;;
7334;SDS011;3708;42.632;23.378;2024-03-08T05:21:45;1.60;;;1.50;;
7334;SDS011;3708;42.632;23.378;2024-03-08T05:24:13;1.73;;;1.20;;
7334;SDS011;3708;42.632;23.378;2024-03-08T05:26:40;1.80;;;1.70;;
7334;SDS011;3708;42.632;23.378;2024-03-08T05:29:07;1.50;;;1.40;;
7334;SDS011;3708;42.632;23.378;2024-03-08T05:31:45;1.83;;;1.73;;
7334;SDS011;3708;42.632;23.378;2024-03-08T05:34:18;1.85;;;1.75;;
7334;SDS011;3708;42.632;23.378;2024-03-08T05:36:45;3.70;;;2.00;;
7334;SDS011;3708;42.632;23.378;2024-03-08T05:39:18;5.78;;;2.17;;
7334;SDS011;3708;42.632;23.378;2024-03-08T05:41:44;2.28;;;2.08;;
7334;SDS011;3708;42.632;23.378;2024-03-08T05:44:11;3.50;;;2.30;;
7334;SDS011;3708;42.632;23.378;2024-03-08T05:46:37;3.63;;;2.45;;
7334;SDS011;3708;42.632;23.378;2024-03-08T05:49:06;3.58;;;3.13;;
7334;SDS011;3708;42.632;23.378;2024-03-08T05:51:35;4.30;;;3.42;;
7334;SDS011;3708;42.632;23.378;2024-03-08T05:54:02;4.15;;;3.25;;
7334;SDS011;3708;42.632;23.378;2024-03-08T05:56:36;4.93;;;2.90;;
7334;SDS011;3708;42.632;23.378;2024-03-08T05:59:02;4.30;;;3.08;;
7334;SDS011;3708;42.632;23.378;2024-03-08T06:01:29;5.30;;;3.13;;
7334;SDS011;3708;42.632;23.378;2024-03-08T06:06:24;4.75;;;2.85;;
7334;SDS011;3708;42.632;23.378;2024-03-08T06:08:50;6.32;;;4.20;;
7334;SDS011;3708;42.632;23.378;2024-03-08T06:11:21;5.32;;;3.83;;
7334;SDS011;3708;42.632;23.378;2024-03-08T06:13:47;6.28;;;3.75;;
7334;SDS011;3708;42.632;23.378;2024-03-08T06:16:15;6.28;;;3.80;;
7334;SDS011;3708;42.632;23.378;2024-03-08T06:18:40;5.10;;;3.35;;
7334;SDS011;3708;42.632;23.378;2024-03-08T06:21:06;7.05;;;3.92;;
7334;SDS011;3708;42.632;23.378;2024-03-08T06:23:34;4.97;;;3.15;;
7334;SDS011;3708;42.632;23.378;2024-03-08T06:26:06;4.68;;;3.55;;
7334;SDS011;3708;42.632;23.378;2024-03-08T06:28:32;5.60;;;3.50;;
7334;SDS011;3708;42.632;23.378;2024-03-08T06:30:59;5.60;;;3.47;;
7334;SDS011;3708;42.632;23.378;2024-03-08T06:33:26;5.90;;;3.90;;
7334;SDS011;3708;42.632;23.378;2024-03-08T06:35:52;4.05;;;3.22;;
7334;SDS011;3708;42.632;23.378;2024-03-08T06:38:18;3.92;;;3.45;;
7334;SDS011;3708;42.632;23.378;2024-03-08T06:40:44;5.93;;;4.07;;
7334;SDS011;3708;42.632;23.378;2024-03-08T06:43:12;5.10;;;3.38;;
7334;SDS011;3708;42.632;23.378;2024-03-08T06:45:41;3.97;;;3.55;;
7334;SDS011;3708;42.632;23.378;2024-03-08T06:48:07;4.82;;;3.72;;
7334;SDS011;3708;42.632;23.378;2024-03-08T06:50:34;7.35;;;3.67;;
7334;SDS011;3708;42.632;23.378;2024-03-08T06:53:01;5.78;;;3.40;;
7334;SDS011;3708;42.632;23.378;2024-03-08T06:55:28;6.45;;;3.97;;
7334;SDS011;3708;42.632;23.378;2024-03-08T06:57:54;5.57;;;3.10;;
7334;SDS011;3708;42.632;23.378;2024-03-08T07:00:19;4.30;;;3.30;;
7334;SDS011;3708;42.632;23.378;2024-03-08T07:02:45;6.60;;;3.83;;
7334;SDS011;3708;42.632;23.378;2024-03-08T07:05:13;3.75;;;3.35;;
7334;SDS011;3708;42.632;23.378;2024-03-08T07:07:39;6.25;;;3.95;;
7334;SDS011;3708;42.632;23.378;2024-03-08T07:10:06;4.93;;;3.45;;
7334;SDS011;3708;42.632;23.378;2024-03-08T07:12:36;4.40;;;3.05;;
7334;SDS011;3708;42.632;23.378;2024-03-08T07:15:03;9.15;;;3.90;;
7334;SDS011;3708;42.632;23.378;2024-03-08T07:17:30;4.60;;;3.25;;
7334;SDS011;3708;42.632;23.378;2024-03-08T07:19:59;6.95;;;3.92;;
7334;SDS011;3708;42.632;23.378;2024-03-08T07:22:31;8.93;;;4.32;;
7334;SDS011;3708;42.632;23.378;2024-03-08T07:24:56;7.38;;;3.50;;
7334;SDS011;3708;42.632;23.378;2024-03-08T07:27:48;4.22;;;3.25;;
7334;SDS011;3708;42.632;23.378;2024-03-08T07:30:14;5.65;;;3.17;;
7334;SDS011;3708;42.632;23.378;2024-03-08T07:32:58;4.15;;;3.75;;
7334;SDS011;3708;42.632;23.378;2024-03-08T07:35:24;4.72;;;3.70;;
7334;SDS011;3708;42.632;23.378;2024-03-08T07:37:51;4.18;;;3.50;;
7334;SDS011;3708;42.632;23.378;2024-03-08T07:40:20;4.25;;;3.50;;
7334;SDS011;3708;42.632;23.378;2024-03-08T07:42:46;5.22;;;4.03;;
7334;SDS011;3708;42.632;23.378;2024-03-08T07:45:12;4.50;;;3.42;;
7334;SDS011;3708;42.632;23.378;2024-03-08T07:47:39;6.85;;;3.42;;
7334;SDS011;3708;42.632;23.378;2024-03-08T07:50:05;4.18;;;3.00;;
7334;SDS011;3708;42.632;23.378;2024-03-08T07:52:33;3.10;;;2.80;;
7334;SDS011;3708;42.632;23.378;2024-03-08T07:55:00;2.70;;;2.50;;
7334;SDS011;3708;42.632;23.378;2024-03-08T07:57:25;2.78;;;2.28;;
7334;SDS011;3708;42.632;23.378;2024-03-08T07:59:51;3.30;;;2.90;;
7334;SDS011;3708;42.632;23.378;2024-03-08T08:02:17;2.50;;;2.30;;
7334;SDS011;3708;42.632;23.378;2024-03-08T08:04:43;1.85;;;1.75;;
7334;SDS011;3708;42.632;23.378;2024-03-08T08:07:10;2.17;;;2.08;;
7334;SDS011;3708;42.632;23.378;2024-03-08T08:09:36;3.38;;;2.75;;
7334;SDS011;3708;42.632;23.378;2024-03-08T08:12:03;4.47;;;3.15;;
7334;SDS011;3708;42.632;23.378;2024-03-08T08:14:29;3.10;;;2.78;;
7334;SDS011;3708;42.632;23.378;2024-03-08T08:16:56;3.08;;;2.63;;
7334;SDS011;3708;42.632;23.378;2024-03-08T08:21:48;3.80;;;2.58;;
7334;SDS011;3708;42.632;23.378;2024-03-08T08:24:14;3.20;;;2.00;;
7334;SDS011;3708;42.632;23.378;2024-03-08T08:26:40;2.60;;;2.40;;
7334;SDS011;3708;42.632;23.378;2024-03-08T08:29:06;3.55;;;3.33;;
7334;SDS011;3708;42.632;23.378;2024-03-08T08:31:32;3.53;;;2.92;;
7334;SDS011;3708;42.632;23.378;2024-03-08T08:33:58;4.97;;;2.75;;
7334;SDS011;3708;42.632;23.378;2024-03-08T08:38:55;2.78;;;2.40;;
7334;SDS011;3708;42.632;23.378;2024-03-08T08:41:23;3.00;;;2.65;;
7334;SDS011;3708;42.632;23.378;2024-03-08T08:43:49;3.92;;;3.53;;
7334;SDS011;3708;42.632;23.378;2024-03-08T08:46:19;4.07;;;3.38;;
7334;SDS011;3708;42.632;23.378;2024-03-08T08:48:46;3.20;;;2.85;;
7334;SDS011;3708;42.632;23.378;2024-03-08T08:51:12;5.68;;;4.03;;
7334;SDS011;3708;42.632;23.378;2024-03-08T08:53:42;4.68;;;2.28;;
7334;SDS011;3708;42.632;23.378;2024-03-08T08:56:08;3.70;;;3.08;;
7334;SDS011;3708;42.632;23.378;2024-03-08T08:58:38;3.38;;;3.08;;
7334;SDS011;3708;42.632;23.378;2024-03-08T09:01:05;3.83;;;2.88;;
7334;SDS011;3708;42.632;23.378;2024-03-08T09:06:00;5.53;;;3.42;;
7334;SDS011;3708;42.632;23.378;2024-03-08T09:08:27;5.03;;;3.25;;
7334;SDS011;3708;42.632;23.378;2024-03-08T09:10:54;6.13;;;2.95;;
7334;SDS011;3708;42.632;23.378;2024-03-08T09:13:19;3.42;;;2.47;;
7334;SDS011;3708;42.632;23.378;2024-03-08T09:15:49;1.95;;;1.67;;
7334;SDS011;3708;42.632;23.378;2024-03-08T09:18:15;2.88;;;2.63;;
7334;SDS011;3708;42.632;23.378;2024-03-08T09:20:40;2.85;;;2.58;;
7334;SDS011;3708;42.632;23.378;2024-03-08T09:23:06;5.10;;;2.75;;
7334;SDS011;3708;42.632;23.378;2024-03-08T09:25:36;2.10;;;1.95;;
7334;SDS011;3708;42.632;23.378;2024-03-08T09:28:04;4.82;;;2.40;;
7334;SDS011;3708;42.632;23.378;2024-03-08T09:30:32;2.20;;;2.05;;
7334;SDS011;3708;42.632;23.378;2024-03-08T09:33:00;2.38;;;1.98;;
7334;SDS011;3708;42.632;23.378;2024-03-08T09:35:25;1.83;;;1.73;;
7334;SDS011;3708;42.632;23.378;2024-03-08T09:37:51;2.40;;;2.20;;
7334;SDS011;3708;42.632;23.378;2024-03-08T09:40:18;3.72;;;2.28;;
7334;SDS011;3708;42.632;23.378;2024-03-08T09:42:48;2.40;;;2.20;;
7334;SDS011;3708;42.632;23.378;2024-03-08T09:45:15;2.40;;;2.00;;
7334;SDS011;3708;42.632;23.378;2024-03-08T09:47:42;2.60;;;2.40;;
7334;SDS011;3708;42.632;23.378;2024-03-08T09:50:14;1.90;;;1.80;;
7334;SDS011;3708;42.632;23.378;2024-03-08T09:52:40;1.98;;;1.75;;
7334;SDS011;3708;42.632;23.378;2024-03-08T09:55:06;1.40;;;1.30;;
7334;SDS011;3708;42.632;23.378;2024-03-08T10:00:00;1.77;;;1.65;;
7334;SDS011;3708;42.632;23.378;2024-03-08T10:02:25;3.53;;;1.65;;
7334;SDS011;3708;42.632;23.378;2024-03-08T10:04:52;2.38;;;2.10;;
7334;SDS011;3708;42.632;23.378;2024-03-08T10:07:18;2.00;;;1.90;;
7334;SDS011;3708;42.632;23.378;2024-03-08T10:09:44;4.47;;;1.98;;
7334;SDS011;3708;42.632;23.378;2024-03-08T10:12:18;2.75;;;1.20;;
7334;SDS011;3708;42.632;23.378;2024-03-08T10:14:45;1.77;;;1.67;;
7334;SDS011;3708;42.632;23.378;2024-03-08T10:17:11;1.30;;;1.25;;
7334;SDS011;3708;42.632;23.378;2024-03-08T10:19:37;4.53;;;1.73;;
7334;SDS011;3708;42.632;23.378;2024-03-08T10:24:31;1.75;;;1.65;;
7334;SDS011;3708;42.632;23.378;2024-03-08T10:26:59;1.48;;;1.38;;
7334;SDS011;3708;42.632;23.378;2024-03-08T10:29:27;1.80;;;1.40;;
7334;SDS011;3708;42.632;23.378;2024-03-08T10:31:53;1.65;;;1.55;;
7334;SDS011;3708;42.632;23.378;2024-03-08T10:34:21;6.65;;;2.17;;
7334;SDS011;3708;42.632;23.378;2024-03-08T10:36:48;2.20;;;2.00;;
7334;SDS011;3708;42.632;23.378;2024-03-08T10:39:20;3.50;;;2.00;;
7334;SDS011;3708;42.632;23.378;2024-03-08T10:41:52;1.80;;;1.70;;
7334;SDS011;3708;42.632;23.378;2024-03-08T10:49:28;6.13;;;1.83;;
7334;SDS011;3708;42.632;23.378;2024-03-08T10:52:04;3.50;;;2.00;;
7334;SDS011;3708;42.632;23.378;2024-03-08T10:54:33;4.15;;;1.85;;
7334;SDS011;3708;42.632;23.378;2024-03-08T10:57:03;4.40;;;1.90;;
7334;SDS011;3708;42.632;23.378;2024-03-08T10:59:30;1.30;;;1.20;;
7334;SDS011;3708;42.632;23.378;2024-03-08T11:01:59;1.38;;;1.38;;
7334;SDS011;3708;42.632;23.378;2024-03-08T11:04:25;1.65;;;1.20;;
7334;SDS011;3708;42.632;23.378;2024-03-08T11:06:51;1.60;;;1.50;;
7334;SDS011;3708;42.632;23.378;2024-03-08T11:09:27;1.73;;;1.63;;
7334;SDS011;3708;42.632;23.378;2024-03-08T11:15:00;1.30;;;1.20;;
7334;SDS011;3708;42.632;23.378;2024-03-08T11:19:58;1.02;;;0.90;;
7334;SDS011;3708;42.632;23.378;2024-03-08T11:22:31;1.80;;;1.35;;
7334;SDS011;3708;42.632;23.378;2024-03-08T11:25:01;1.48;;;1.38;;
7334;SDS011;3708;42.632;23.378;2024-03-08T11:27:29;4.53;;;1.52;;
7334;SDS011;3708;42.632;23.378;2024-03-08T11:30:03;1.80;;;1.35;;
7334;SDS011;3708;42.632;23.378;2024-03-08T11:32:46;1.98;;;1.52;;
7334;SDS011;3708;42.632;23.378;2024-03-08T11:35:22;1.13;;;1.13;;
7334;SDS011;3708;42.632;23.378;2024-03-08T11:37:50;1.40;;;1.30;;
7334;SDS011;3708;42.632;23.378;2024-03-08T11:40:16;2.80;;;1.65;;
7334;SDS011;3708;42.632;23.378;2024-03-08T11:42:45;6.72;;;1.60;;
7334;SDS011;3708;42.632;23.378;2024-03-08T11:45:20;1.63;;;1.55;;
7334;SDS011;3708;42.632;23.378;2024-03-08T11:47:50;1.50;;;1.40;;
7334;SDS011;3708;42.632;23.378;2024-03-08T11:50:18;1.60;;;1.50;;
7334;SDS011;3708;42.632;23.378;2024-03-08T11:52:46;1.30;;;1.20;;
7334;SDS011;3708;42.632;23.378;2024-03-08T11:55:12;1.70;;;1.60;;
7334;SDS011;3708;42.632;23.378;2024-03-08T11:57:38;2.30;;;1.30;;
7334;SDS011;3708;42.632;23.378;2024-03-08T12:00:04;1.10;;;1.10;;
7334;SDS011;3708;42.632;23.378;2024-03-08T12:02:46;1.50;;;1.40;;
7334;SDS011;3708;42.632;23.378;2024-03-08T12:05:15;1.17;;;1.15;;
7334;SDS011;3708;42.632;23.378;2024-03-08T12:07:41;1.13;;;1.13;;
7334;SDS011;3708;42.632;23.378;2024-03-08T12:12:47;1.73;;;1.63;;
7334;SDS011;3708;42.632;23.378;2024-03-08T12:15:22;1.42;;;1.33;;
7334;SDS011;3708;42.632;23.378;2024-03-08T12:17:50;3.00;;;1.33;;
7334;SDS011;3708;42.632;23.378;2024-03-08T12:20:24;2.10;;;1.42;;
7334;SDS011;3708;42.632;23.378;2024-03-08T12:22:51;3.28;;;1.08;;
7334;SDS011;3708;42.632;23.378;2024-03-08T12:25:26;1.33;;;1.23;;
7334;SDS011;3708;42.632;23.378;2024-03-08T12:28:07;3.30;;;1.40;;
7334;SDS011;3708;42.632;23.378;2024-03-08T12:30:47;1.45;;;1.38;;
7334;SDS011;3708;42.632;23.378;2024-03-08T12:33:14;1.63;;;1.20;;
7334;SDS011;3708;42.632;23.378;2024-03-08T12:35:39;1.40;;;1.30;;
7334;SDS011;3708;42.632;23.378;2024-03-08T12:38:07;1.73;;;1.55;;
7334;SDS011;3708;42.632;23.378;2024-03-08T12:40:33;3.17;;;1.50;;
7334;SDS011;3708;42.632;23.378;2024-03-08T12:43:07;1.42;;;1.33;;
7334;SDS011;3708;42.632;23.378;2024-03-08T12:45:32;1.40;;;1.30;;
7334;SDS011;3708;42.632;23.378;2024-03-08T12:47:58;1.58;;;1.48;;
7334;SDS011;3708;42.632;23.378;2024-03-08T12:52:50;3.13;;;1.40;;
7334;SDS011;3708;42.632;23.378;2024-03-08T12:55:17;3.42;;;1.75;;
7334;SDS011;3708;42.632;23.378;2024-03-08T12:57:43;2.55;;;1.63;;
7334;SDS011;3708;42.632;23.378;2024-03-08T13:00:10;1.55;;;1.45;;
7334;SDS011;3708;42.632;23.378;2024-03-08T13:02:44;1.30;;;1.30;;
7334;SDS011;3708;42.632;23.378;2024-03-08T13:05:13;2.45;;;1.30;;
7334;SDS011;3708;42.632;23.378;2024-03-08T13:07:39;1.40;;;0.98;;
7334;SDS011;3708;42.632;23.378;2024-03-08T13:10:11;1.25;;;1.15;;
7334;SDS011;3708;42.632;23.378;2024-03-08T13:12:42;1.42;;;1.33;;
7334;SDS011;3708;42.632;23.378;2024-03-08T13:15:09;3.40;;;2.63;;
7334;SDS011;3708;42.632;23.378;2024-03-08T13:17:45;2.55;;;1.33;;
7334;SDS011;3708;42.632;23.378;2024-03-08T13:20:13;1.63;;;1.33;;
7334;SDS011;3708;42.632;23.378;2024-03-08T13:22:43;3.75;;;1.52;;
7334;SDS011;3708;42.632;23.378;2024-03-08T13:25:08;3.85;;;1.52;;
7334;SDS011;3708;42.632;23.378;2024-03-08T13:27:41;2.00;;;1.30;;
7334;SDS011;3708;42.632;23.378;2024-03-08T13:30:10;1.13;;;1.10;;
7334;SDS011;3708;42.632;23.378;2024-03-08T13:32:43;1.00;;;1.00;;
7334;SDS011;3708;42.632;23.378;2024-03-08T13:35:12;2.15;;;1.08;;
7334;SDS011;3708;42.632;23.378;2024-03-08T13:37:41;1.25;;;1.15;;
7334;SDS011;3708;42.632;23.378;2024-03-08T13:40:08;1.13;;;1.02;;
7334;SDS011;3708;42.632;23.378;2024-03-08T13:42:41;1.30;;;1.20;;
7334;SDS011;3708;42.632;23.378;2024-03-08T13:45:10;1.30;;;1.20;;
7334;SDS011;3708;42.632;23.378;2024-03-08T13:47:36;1.27;;;1.20;;
7334;SDS011;3708;42.632;23.378;2024-03-08T13:52:29;1.35;;;1.23;;
7334;SDS011;3708;42.632;23.378;2024-03-08T13:54:55;1.40;;;1.30;;
7334;SDS011;3708;42.632;23.378;2024-03-08T13:57:20;1.52;;;1.42;;
7334;SDS011;3708;42.632;23.378;2024-03-08T13:59:47;1.00;;;1.00;;
7334;SDS011;3708;42.632;23.378;2024-03-08T14:02:14;1.58;;;1.13;;
7334;SDS011;3708;42.632;23.378;2024-03-08T14:04:40;1.42;;;1.33;;
7334;SDS011;3708;42.632;23.378;2024-03-08T14:07:07;3.05;;;1.35;;
7334;SDS011;3708;42.632;23.378;2024-03-08T14:09:33;4.95;;;1.10;;
7334;SDS011;3708;42.632;23.378;2024-03-08T14:12:04;1.13;;;1.13;;
7334;SDS011;3708;42.632;23.378;2024-03-08T14:14:33;5.70;;;1.30;;
7334;SDS011;3708;42.632;23.378;2024-03-08T14:17:02;3.83;;;1.60;;
7334;SDS011;3708;42.632;23.378;2024-03-08T14:19:29;5.65;;;1.20;;
7334;SDS011;3708;42.632;23.378;2024-03-08T14:21:56;2.10;;;1.20;;
7334;SDS011;3708;42.632;23.378;2024-03-08T14:24:24;2.65;;;1.40;;
7334;SDS011;3708;42.632;23.378;2024-03-08T14:26:50;1.85;;;1.33;;
7334;SDS011;3708;42.632;23.378;2024-03-08T14:29:16;1.38;;;1.35;;
7334;SDS011;3708;42.632;23.378;2024-03-08T14:31:43;5.68;;;1.30;;
7334;SDS011;3708;42.632;23.378;2024-03-08T14:34:08;1.67;;;1.38;;
7334;SDS011;3708;42.632;23.378;2024-03-08T14:36:34;1.75;;;1.48;;
7334;SDS011;3708;42.632;23.378;2024-03-08T14:39:00;1.58;;;1.42;;
7334;SDS011;3708;42.632;23.378;2024-03-08T14:41:26;5.15;;;1.60;;
7334;SDS011;3708;42.632;23.378;2024-03-08T14:43:52;1.60;;;1.50;;
7334;SDS011;3708;42.632;23.378;2024-03-08T14:46:22;1.20;;;1.20;;
7334;SDS011;3708;42.632;23.378;2024-03-08T14:48:51;2.30;;;1.40;;
7334;SDS011;3708;42.632;23.378;2024-03-08T14:51:19;1.77;;;1.40;;
7334;SDS011;3708;42.632;23.378;2024-03-08T14:53:54;1.17;;;1.08;;
7334;SDS011;3708;42.632;23.378;2024-03-08T14:56:20;1.13;;;1.08;;
7334;SDS011;3708;42.632;23.378;2024-03-08T14:58:46;1.40;;;1.30;;
7334;SDS011;3708;42.632;23.378;2024-03-08T15:01:14;1.60;;;1.45;;
7334;SDS011;3708;42.632;23.378;2024-03-08T15:03:41;1.83;;;1.60;;
7334;SDS011;3708;42.632;23.378;2024-03-08T15:06:10;8.10;;;2.28;;
7334;SDS011;3708;42.632;23.378;2024-03-08T15:08:36;2.53;;;1.35;;
7334;SDS011;3708;42.632;23.378;2024-03-08T15:11:05;1.92;;;1.60;;
7334;SDS011;3708;42.632;23.378;2024-03-08T15:13:35;3.55;;;1.50;;
7334;SDS011;3708;42.632;23.378;2024-03-08T15:16:07;1.58;;;1.33;;
7334;SDS011;3708;42.632;23.378;2024-03-08T15:18:33;2.05;;;1.48;;
7334;SDS011;3708;42.632;23.378;2024-03-08T15:21:01;3.75;;;1.90;;
7334;SDS011;3708;42.632;23.378;2024-03-08T15:23:36;1.90;;;1.52;;
7334;SDS011;3708;42.632;23.378;2024-03-08T15:26:02;2.95;;;2.58;;
7334;SDS011;3708;42.632;23.378;2024-03-08T15:28:29;2.40;;;2.20;;
7334;SDS011;3708;42.632;23.378;2024-03-08T15:31:05;1.90;;;1.80;;
7334;SDS011;3708;42.632;23.378;2024-03-08T15:33:34;1.80;;;1.70;;
7334;SDS011;3708;42.632;23.378;2024-03-08T15:36:13;1.98;;;1.83;;
7334;SDS011;3708;42.632;23.378;2024-03-08T15:38:44;2.83;;;2.33;;
7334;SDS011;3708;42.632;23.378;2024-03-08T15:41:11;3.28;;;1.90;;
7334;SDS011;3708;42.632;23.378;2024-03-08T15:43:41;2.53;;;2.03;;
7334;SDS011;3708;42.632;23.378;2024-03-08T15:46:07;2.80;;;2.13;;